createdAt,value
2018-06-28T00:00:14.642Z,52.70
2018-06-28T00:00:46.362Z,52.70
2018-06-28T00:01:18.095Z,52.70
2018-06-28T00:02:21.814Z,52.60
2018-06-28T00:02:53.545Z,52.60
2018-06-28T00:03:25.278Z,52.70
2018-06-28T00:03:57.013Z,52.70
2018-06-28T00:04:28.745Z,52.80
2018-06-28T00:05:00.485Z,53.40
2018-06-28T00:05:32.215Z,53.10
2018-06-28T00:06:03.939Z,52.90
2018-06-28T00:06:35.674Z,52.90
2018-06-28T00:07:07.412Z,52.90
2018-06-28T00:07:39.138Z,52.90
2018-06-28T00:08:10.875Z,52.90
2018-06-28T00:08:42.661Z,52.90
2018-06-28T00:09:14.531Z,52.90
2018-06-28T00:09:46.269Z,52.80
2018-06-28T00:10:18.058Z,52.80
2018-06-28T00:10:49.772Z,52.80
2018-06-28T00:11:21.497Z,52.80
2018-06-28T00:11:53.217Z,52.80
2018-06-28T00:12:24.943Z,52.80
2018-06-28T00:12:56.687Z,52.80
2018-06-28T00:13:28.418Z,52.80
2018-06-28T00:14:00.178Z,52.80
2018-06-28T00:14:31.928Z,52.90
2018-06-28T00:15:03.631Z,52.90
2018-06-28T00:15:35.364Z,52.70
2018-06-28T00:16:07.100Z,52.80
2018-06-28T00:16:38.838Z,52.70
2018-06-28T00:17:10.562Z,52.80
2018-06-28T00:17:42.288Z,52.70
2018-06-28T00:18:14.023Z,52.80
2018-06-28T00:18:45.762Z,52.80
2018-06-28T00:19:17.500Z,52.80
2018-06-28T00:19:49.237Z,52.80
2018-06-28T00:20:20.970Z,52.70
2018-06-28T00:20:52.699Z,52.70
2018-06-28T00:21:24.421Z,53.20
2018-06-28T00:21:56.158Z,52.80
2018-06-28T00:22:28.077Z,52.80
2018-06-28T00:22:59.794Z,52.80
2018-06-28T00:23:31.530Z,52.80
2018-06-28T00:24:03.249Z,52.80
2018-06-28T00:24:35.230Z,52.80
2018-06-28T00:25:07.145Z,52.90
2018-06-28T00:25:38.888Z,52.90
2018-06-28T00:26:10.603Z,52.80
2018-06-28T00:26:42.357Z,52.80
2018-06-28T00:27:14.074Z,52.80
2018-06-28T00:27:45.798Z,52.80
2018-06-28T00:28:17.535Z,52.70
2018-06-28T00:28:49.264Z,52.80
2018-06-28T00:29:20.981Z,52.80
2018-06-28T00:29:52.705Z,52.80
2018-06-28T00:30:24.436Z,52.80
2018-06-28T00:30:56.169Z,52.80
2018-06-28T00:31:27.886Z,52.70
2018-06-28T00:31:59.706Z,52.70
2018-06-28T00:33:03.414Z,52.70
2018-06-28T00:33:35.128Z,52.70
2018-06-28T00:34:06.893Z,52.70
2018-06-28T00:34:38.700Z,52.60
2018-06-28T00:35:10.415Z,52.70
2018-06-28T00:35:42.192Z,52.70
2018-06-28T00:36:14.059Z,52.70
2018-06-28T00:36:45.857Z,52.70
2018-06-28T00:37:17.590Z,52.80
2018-06-28T00:37:49.315Z,52.70
2018-06-28T00:38:21.042Z,53.40
2018-06-28T00:38:52.794Z,52.70
2018-06-28T00:39:24.515Z,52.70
2018-06-28T00:39:56.253Z,52.70
2018-06-28T00:40:27.979Z,52.70
2018-06-28T00:40:59.693Z,52.60
2018-06-28T00:41:31.416Z,52.60
2018-06-28T00:42:03.162Z,52.60
2018-06-28T00:42:34.881Z,52.60
2018-06-28T00:43:06.610Z,52.60
2018-06-28T00:43:38.381Z,52.60
2018-06-28T00:44:10.266Z,52.60
2018-06-28T00:44:41.999Z,52.60
2018-06-28T00:45:13.788Z,52.50
2018-06-28T00:45:45.530Z,52.50
2018-06-28T00:46:17.287Z,52.10
2018-06-28T00:46:49.013Z,52.70
2018-06-28T00:47:20.736Z,52.80
2018-06-28T00:47:52.481Z,52.80
2018-06-28T00:48:24.206Z,52.80
2018-06-28T00:48:55.938Z,52.80
2018-06-28T00:49:27.679Z,52.80
2018-06-28T00:49:59.404Z,52.80
2018-06-28T00:50:31.129Z,52.70
2018-06-28T00:51:02.854Z,52.70
2018-06-28T00:51:34.579Z,53.30
2018-06-28T00:52:06.323Z,52.70
2018-06-28T00:52:38.060Z,52.60
2018-06-28T00:53:09.788Z,52.60
2018-06-28T00:53:41.553Z,52.60
2018-06-28T00:54:13.357Z,52.60
2018-06-28T00:54:45.079Z,52.80
2018-06-28T00:55:16.819Z,52.80
2018-06-28T00:55:48.770Z,52.80
2018-06-28T00:56:20.511Z,52.70
2018-06-28T00:56:52.233Z,52.80
2018-06-28T00:57:23.966Z,52.70
2018-06-28T00:57:55.703Z,52.80
2018-06-28T00:58:27.466Z,52.80
2018-06-28T00:58:59.178Z,52.80
2018-06-28T00:59:30.897Z,52.70
2018-06-28T01:00:02.672Z,52.80
2018-06-28T01:00:34.378Z,52.70
2018-06-28T01:01:06.133Z,52.70
2018-06-28T01:01:37.872Z,52.70
2018-06-28T01:02:09.581Z,52.70
2018-06-28T01:02:41.305Z,52.70
2018-06-28T01:03:13.084Z,52.60
2018-06-28T01:03:44.813Z,52.60
2018-06-28T01:04:16.565Z,52.50
2018-06-28T01:04:48.291Z,52.50
2018-06-28T01:05:20.000Z,53.10
2018-06-28T01:05:51.718Z,52.50
2018-06-28T01:06:23.456Z,52.50
2018-06-28T01:06:55.184Z,52.60
2018-06-28T01:07:26.923Z,53.10
2018-06-28T01:07:58.648Z,52.50
2018-06-28T01:08:30.372Z,52.60
2018-06-28T01:09:02.091Z,52.70
2018-06-28T01:10:05.842Z,52.80
2018-06-28T01:10:37.615Z,52.90
2018-06-28T01:11:09.394Z,52.90
2018-06-28T01:11:41.121Z,52.90
2018-06-28T01:12:12.849Z,52.80
2018-06-28T01:12:44.585Z,52.90
2018-06-28T01:13:16.296Z,52.90
2018-06-28T01:13:48.023Z,52.80
2018-06-28T01:14:19.742Z,52.80
2018-06-28T01:14:51.463Z,52.80
2018-06-28T01:15:23.382Z,52.80
2018-06-28T01:15:55.084Z,52.80
2018-06-28T01:16:26.801Z,52.80
2018-06-28T01:16:58.527Z,52.80
2018-06-28T01:17:30.259Z,52.70
2018-06-28T01:18:01.985Z,52.80
2018-06-28T01:18:33.756Z,52.80
2018-06-28T01:19:05.628Z,52.80
2018-06-28T01:20:09.386Z,52.80
2018-06-28T01:20:41.123Z,52.70
2018-06-28T01:21:12.880Z,52.80
2018-06-28T01:21:44.609Z,52.80
2018-06-28T01:22:16.329Z,52.80
2018-06-28T01:22:48.062Z,52.80
2018-06-28T01:23:19.781Z,52.80
2018-06-28T01:23:51.511Z,52.80
2018-06-28T01:24:23.250Z,52.80
2018-06-28T01:24:54.990Z,52.80
2018-06-28T01:25:26.706Z,52.80
2018-06-28T01:25:58.431Z,52.80
2018-06-28T01:26:30.146Z,52.80
2018-06-28T01:27:01.879Z,52.80
2018-06-28T01:27:33.599Z,52.80
2018-06-28T01:28:05.386Z,52.70
2018-06-28T01:28:37.106Z,52.80
2018-06-28T01:29:08.835Z,52.80
2018-06-28T01:29:40.558Z,52.80
2018-06-28T01:30:12.282Z,52.80
2018-06-28T01:30:44.011Z,52.80
2018-06-28T01:31:15.752Z,52.80
2018-06-28T01:31:47.489Z,53.30
2018-06-28T01:32:19.209Z,53.40
2018-06-28T01:32:50.934Z,52.80
2018-06-28T01:33:22.661Z,52.80
2018-06-28T01:33:54.386Z,52.80
2018-06-28T01:34:26.098Z,52.80
2018-06-28T01:34:57.900Z,52.80
2018-06-28T01:35:29.590Z,52.80
2018-06-28T01:36:01.317Z,52.80
2018-06-28T01:36:33.055Z,52.80
2018-06-28T01:37:04.754Z,52.80
2018-06-28T01:37:36.481Z,52.80
2018-06-28T01:38:40.239Z,53.40
2018-06-28T01:39:12.017Z,52.80
2018-06-28T01:39:43.742Z,52.80
2018-06-28T01:40:15.457Z,52.80
2018-06-28T01:40:47.206Z,52.90
2018-06-28T01:41:18.904Z,52.80
2018-06-28T01:41:50.641Z,52.80
2018-06-28T01:42:22.371Z,52.80
2018-06-28T01:42:54.113Z,52.90
2018-06-28T01:43:25.933Z,52.80
2018-06-28T01:43:57.650Z,52.80
2018-06-28T01:44:29.409Z,52.80
2018-06-28T01:45:01.322Z,52.80
2018-06-28T01:45:33.063Z,52.70
2018-06-28T01:46:04.999Z,52.80
2018-06-28T01:46:36.746Z,52.80
2018-06-28T01:47:08.465Z,52.80
2018-06-28T01:47:40.182Z,52.80
2018-06-28T01:48:11.910Z,52.70
2018-06-28T01:48:43.639Z,52.70
2018-06-28T01:49:15.560Z,52.80
2018-06-28T01:49:47.359Z,52.70
2018-06-28T01:50:19.074Z,52.70
2018-06-28T01:50:50.801Z,52.70
2018-06-28T01:51:22.659Z,52.70
2018-06-28T01:51:54.390Z,52.70
2018-06-28T01:52:26.150Z,52.70
2018-06-28T01:52:57.884Z,53.30
2018-06-28T01:53:29.810Z,52.60
2018-06-28T01:54:01.557Z,52.60
2018-06-28T01:54:33.287Z,52.60
2018-06-28T01:55:05.028Z,52.60
2018-06-28T01:55:36.759Z,52.60
2018-06-28T01:56:08.488Z,52.60
2018-06-28T01:56:40.302Z,52.60
2018-06-28T01:57:12.045Z,52.60
2018-06-28T01:57:43.770Z,53.20
2018-06-28T01:58:15.490Z,53.50
2018-06-28T01:58:47.224Z,52.90
2018-06-28T01:59:18.945Z,53.00
2018-06-28T01:59:50.675Z,53.00
2018-06-28T02:00:54.454Z,52.90
2018-06-28T02:01:26.287Z,52.80
2018-06-28T02:01:58.036Z,52.70
2018-06-28T02:02:29.756Z,52.70
2018-06-28T02:03:01.519Z,52.70
2018-06-28T02:03:33.268Z,52.70
2018-06-28T02:04:04.987Z,53.00
2018-06-28T02:04:36.711Z,52.70
2018-06-28T02:05:08.456Z,52.70
2018-06-28T02:05:40.170Z,52.70
2018-06-28T02:06:11.895Z,52.70
2018-06-28T02:06:43.646Z,52.70
2018-06-28T02:07:15.375Z,52.70
2018-06-28T02:07:47.094Z,52.70
2018-06-28T02:08:18.847Z,52.70
2018-06-28T02:08:50.627Z,52.70
2018-06-28T02:09:22.570Z,52.70
2018-06-28T02:09:54.281Z,52.70
2018-06-28T02:10:26.010Z,52.60
2018-06-28T02:10:57.762Z,52.60
2018-06-28T02:11:29.491Z,52.70
2018-06-28T02:12:01.214Z,52.60
2018-06-28T02:12:32.958Z,52.60
2018-06-28T02:13:04.691Z,52.60
2018-06-28T02:13:36.418Z,52.60
2018-06-28T02:14:08.157Z,52.80
2018-06-28T02:14:39.875Z,52.60
2018-06-28T02:15:11.598Z,52.60
2018-06-28T02:15:43.349Z,52.60
2018-06-28T02:16:15.082Z,52.60
2018-06-28T02:16:46.870Z,52.50
2018-06-28T02:17:18.623Z,52.50
2018-06-28T02:17:50.365Z,52.50
2018-06-28T02:18:22.091Z,52.50
2018-06-28T02:18:53.832Z,52.50
2018-06-28T02:19:25.554Z,52.40
2018-06-28T02:20:29.486Z,52.40
2018-06-28T02:21:01.212Z,52.30
2018-06-28T02:21:32.938Z,52.20
2018-06-28T02:22:04.660Z,52.30
2018-06-28T02:22:36.403Z,52.30
2018-06-28T02:23:08.138Z,52.30
2018-06-28T02:23:39.862Z,52.30
2018-06-28T02:24:11.603Z,52.20
2018-06-28T02:24:43.334Z,52.30
2018-06-28T02:25:15.056Z,52.20
2018-06-28T02:25:46.811Z,52.20
2018-06-28T02:26:18.542Z,52.20
2018-06-28T02:26:50.306Z,52.20
2018-06-28T02:27:22.039Z,52.20
2018-06-28T02:27:53.904Z,52.30
2018-06-28T02:28:25.713Z,52.30
2018-06-28T02:28:57.433Z,52.40
2018-06-28T02:29:29.164Z,52.40
2018-06-28T02:30:00.905Z,52.30
2018-06-28T02:30:32.648Z,52.40
2018-06-28T02:31:04.384Z,52.30
2018-06-28T02:31:36.122Z,52.40
2018-06-28T02:32:07.864Z,52.40
2018-06-28T02:32:39.677Z,52.50
2018-06-28T02:33:11.387Z,52.50
2018-06-28T02:33:43.131Z,52.60
2018-06-28T02:34:14.865Z,52.50
2018-06-28T02:34:46.594Z,52.60
2018-06-28T02:35:18.339Z,52.50
2018-06-28T02:35:50.095Z,52.60
2018-06-28T02:36:21.830Z,52.60
2018-06-28T02:36:53.818Z,52.60
2018-06-28T02:37:25.540Z,52.60
2018-06-28T02:37:57.267Z,52.60
2018-06-28T02:38:28.986Z,52.60
2018-06-28T02:39:00.714Z,52.50
2018-06-28T02:39:32.563Z,53.20
2018-06-28T02:40:04.250Z,52.50
2018-06-28T02:40:36.025Z,52.60
2018-06-28T02:41:39.766Z,52.70
2018-06-28T02:42:11.511Z,52.60
2018-06-28T02:42:43.253Z,52.50
2018-06-28T02:43:14.988Z,52.50
2018-06-28T02:43:46.806Z,52.60
2018-06-28T02:44:18.634Z,52.70
2018-06-28T02:44:50.354Z,52.50
2018-06-28T02:45:22.093Z,52.40
2018-06-28T02:45:53.822Z,52.50
2018-06-28T02:46:25.630Z,52.30
2018-06-28T02:46:57.357Z,52.30
2018-06-28T02:47:29.082Z,52.30
2018-06-28T02:48:00.805Z,52.30
2018-06-28T02:48:32.587Z,52.40
2018-06-28T02:49:04.507Z,52.30
2018-06-28T02:49:36.245Z,52.20
2018-06-28T02:50:07.992Z,52.10
2018-06-28T02:50:39.713Z,52.70
2018-06-28T02:51:11.462Z,52.10
2018-06-28T02:51:43.198Z,52.20
2018-06-28T02:52:14.911Z,52.20
2018-06-28T02:52:46.643Z,52.20
2018-06-28T02:53:18.557Z,52.20
2018-06-28T02:53:50.299Z,52.20
2018-06-28T02:54:22.024Z,52.80
2018-06-28T02:54:53.806Z,52.20
2018-06-28T02:55:25.762Z,52.20
2018-06-28T02:55:57.622Z,52.20
2018-06-28T02:56:29.341Z,52.20
2018-06-28T02:57:01.073Z,52.10
2018-06-28T02:57:32.814Z,52.20
2018-06-28T02:58:04.561Z,52.20
2018-06-28T02:58:36.314Z,52.20
2018-06-28T02:59:08.029Z,52.40
2018-06-28T02:59:39.756Z,52.40
2018-06-28T03:00:11.490Z,52.40
2018-06-28T03:01:15.228Z,52.30
2018-06-28T03:01:46.939Z,52.30
2018-06-28T03:02:18.667Z,52.40
2018-06-28T03:03:22.425Z,52.40
2018-06-28T03:03:54.154Z,52.40
2018-06-28T03:04:25.880Z,52.30
2018-06-28T03:04:57.597Z,52.30
2018-06-28T03:05:29.334Z,52.40
2018-06-28T03:06:01.057Z,52.40
2018-06-28T03:06:32.782Z,52.50
2018-06-28T03:07:04.535Z,52.50
2018-06-28T03:07:36.261Z,52.60
2018-06-28T03:08:08.005Z,52.60
2018-06-28T03:08:39.992Z,52.60
2018-06-28T03:09:43.772Z,52.70
2018-06-28T03:10:15.542Z,52.50
2018-06-28T03:10:47.291Z,52.60
2018-06-28T03:11:19.023Z,53.30
2018-06-28T03:11:50.740Z,52.50
2018-06-28T03:12:22.510Z,52.50
2018-06-28T03:12:54.238Z,52.50
2018-06-28T03:13:26.016Z,52.50
2018-06-28T03:13:57.738Z,52.50
2018-06-28T03:14:29.474Z,52.60
2018-06-28T03:15:01.224Z,53.20
2018-06-28T03:15:32.954Z,52.60
2018-06-28T03:16:04.685Z,52.60
2018-06-28T03:16:36.456Z,52.60
2018-06-28T03:17:08.176Z,52.50
2018-06-28T03:17:40.167Z,52.50
2018-06-28T03:18:11.910Z,52.50
2018-06-28T03:18:43.831Z,52.60
2018-06-28T03:19:15.566Z,52.60
2018-06-28T03:19:47.302Z,52.70
2018-06-28T03:20:19.063Z,52.70
2018-06-28T03:20:50.782Z,52.70
2018-06-28T03:21:22.515Z,52.80
2018-06-28T03:21:54.233Z,52.80
2018-06-28T03:22:26.026Z,52.80
2018-06-28T03:22:57.749Z,52.80
2018-06-28T03:23:29.472Z,52.80
2018-06-28T03:24:01.200Z,52.70
2018-06-28T03:24:32.920Z,52.80
2018-06-28T03:25:04.676Z,52.70
2018-06-28T03:25:36.378Z,52.70
2018-06-28T03:26:08.109Z,52.70
2018-06-28T03:26:39.852Z,52.60
2018-06-28T03:27:11.664Z,52.60
2018-06-28T03:27:43.395Z,52.60
2018-06-28T03:28:15.122Z,53.00
2018-06-28T03:28:46.841Z,52.70
2018-06-28T03:29:18.570Z,52.70
2018-06-28T03:29:50.430Z,52.70
2018-06-28T03:30:22.138Z,52.60
2018-06-28T03:30:53.894Z,52.70
2018-06-28T03:31:25.866Z,52.70
2018-06-28T03:31:57.596Z,52.70
2018-06-28T03:32:29.321Z,52.70
2018-06-28T03:33:01.249Z,52.70
2018-06-28T03:33:32.984Z,53.30
2018-06-28T03:34:04.733Z,52.80
2018-06-28T03:34:36.472Z,52.80
2018-06-28T03:35:08.202Z,52.80
2018-06-28T03:35:39.947Z,52.80
2018-06-28T03:36:11.672Z,52.80
2018-06-28T03:36:43.390Z,52.80
2018-06-28T03:37:15.135Z,52.80
2018-06-28T03:37:46.966Z,52.80
2018-06-28T03:38:18.862Z,52.90
2018-06-28T03:38:50.789Z,52.90
2018-06-28T03:39:22.530Z,52.90
2018-06-28T03:39:54.267Z,52.80
2018-06-28T03:40:25.994Z,52.80
2018-06-28T03:40:57.762Z,52.90
2018-06-28T03:41:29.485Z,52.90
2018-06-28T03:42:01.220Z,52.90
2018-06-28T03:42:32.974Z,53.00
2018-06-28T03:43:04.710Z,52.90
2018-06-28T03:43:36.444Z,53.00
2018-06-28T03:44:08.184Z,53.00
2018-06-28T03:44:39.903Z,53.00
2018-06-28T03:45:11.633Z,53.00
2018-06-28T03:45:43.375Z,53.00
2018-06-28T03:46:15.095Z,53.00
2018-06-28T03:46:46.826Z,53.00
2018-06-28T03:47:18.573Z,53.00
2018-06-28T03:47:50.316Z,52.90
2018-06-28T03:48:54.091Z,53.00
2018-06-28T03:49:26.074Z,52.80
2018-06-28T03:49:57.797Z,52.90
2018-06-28T03:50:29.526Z,52.90
2018-06-28T03:51:01.266Z,52.90
2018-06-28T03:51:33.006Z,52.90
2018-06-28T03:52:04.730Z,52.90
2018-06-28T03:52:36.461Z,52.80
2018-06-28T03:53:08.204Z,52.90
2018-06-28T03:53:39.932Z,52.80
2018-06-28T03:54:11.659Z,52.90
2018-06-28T03:54:43.444Z,52.90
2018-06-28T03:55:15.134Z,52.90
2018-06-28T03:56:18.890Z,53.00
2018-06-28T03:56:50.626Z,52.90
2018-06-28T03:57:22.360Z,53.00
2018-06-28T03:57:54.282Z,52.90
2018-06-28T03:58:26.021Z,52.90
2018-06-28T03:58:57.749Z,52.90
2018-06-28T03:59:29.501Z,52.80
2018-06-28T04:00:01.450Z,52.80
2018-06-28T04:01:05.211Z,52.60
2018-06-28T04:01:36.932Z,52.80
2018-06-28T04:02:08.666Z,52.80
2018-06-28T04:02:40.391Z,52.80
2018-06-28T04:03:12.126Z,52.80
2018-06-28T04:03:43.862Z,52.80
2018-06-28T04:04:15.569Z,52.80
2018-06-28T04:04:47.309Z,53.00
2018-06-28T04:05:19.033Z,53.00
2018-06-28T04:05:50.845Z,53.10
2018-06-28T04:06:22.571Z,53.00
2018-06-28T04:06:54.295Z,53.10
2018-06-28T04:07:26.051Z,53.10
2018-06-28T04:07:58.020Z,53.20
2018-06-28T04:08:29.742Z,53.80
2018-06-28T04:09:01.462Z,53.40
2018-06-28T04:09:33.187Z,53.30
2018-06-28T04:10:04.916Z,53.30
2018-06-28T04:10:36.646Z,53.30
2018-06-28T04:11:08.375Z,53.40
2018-06-28T04:11:40.097Z,53.30
2018-06-28T04:12:11.826Z,53.40
2018-06-28T04:12:43.560Z,53.30
2018-06-28T04:13:15.270Z,53.30
2018-06-28T04:13:46.999Z,53.30
2018-06-28T04:14:18.744Z,53.20
2018-06-28T04:14:50.476Z,53.30
2018-06-28T04:15:22.207Z,53.30
2018-06-28T04:15:54.014Z,53.30
2018-06-28T04:16:25.878Z,53.30
2018-06-28T04:16:57.613Z,53.30
2018-06-28T04:17:29.338Z,53.30
2018-06-28T04:18:01.109Z,53.00
2018-06-28T04:18:32.951Z,53.90
2018-06-28T04:19:04.766Z,54.20
2018-06-28T04:19:36.484Z,55.60
2018-06-28T04:20:08.210Z,55.00
2018-06-28T04:20:39.967Z,56.50
2018-06-28T04:21:11.689Z,57.10
2018-06-28T04:21:43.410Z,57.50
2018-06-28T04:22:15.152Z,57.30
2018-06-28T04:22:46.881Z,57.50
2018-06-28T04:23:18.610Z,57.60
2018-06-28T04:23:50.359Z,57.70
2018-06-28T04:24:22.086Z,57.80
2018-06-28T04:24:53.814Z,57.00
2018-06-28T04:25:25.679Z,58.50
2018-06-28T04:25:57.410Z,59.50
2018-06-28T04:26:29.146Z,58.20
2018-06-28T04:27:00.866Z,57.20
2018-06-28T04:27:32.663Z,57.90
2018-06-28T04:28:04.515Z,57.70
2018-06-28T04:28:36.247Z,57.30
2018-06-28T04:29:07.974Z,57.50
2018-06-28T04:29:39.750Z,57.40
2018-06-28T04:30:11.628Z,57.70
2018-06-28T04:30:43.365Z,57.60
2018-06-28T04:31:15.088Z,57.30
2018-06-28T04:31:46.812Z,57.20
2018-06-28T04:32:18.561Z,57.10
2018-06-28T04:32:50.277Z,57.00
2018-06-28T04:33:22.073Z,56.80
2018-06-28T04:33:53.953Z,56.50
2018-06-28T04:34:25.678Z,56.90
2018-06-28T04:34:57.411Z,57.20
2018-06-28T04:35:29.142Z,57.30
2018-06-28T04:36:00.868Z,57.20
2018-06-28T04:36:32.607Z,57.30
2018-06-28T04:37:04.334Z,57.30
2018-06-28T04:37:36.114Z,57.20
2018-06-28T04:38:07.873Z,57.10
2018-06-28T04:38:39.614Z,57.40
2018-06-28T04:39:11.348Z,58.00
2018-06-28T04:39:43.088Z,57.60
2018-06-28T04:40:14.826Z,57.80
2018-06-28T04:40:46.547Z,58.00
2018-06-28T04:41:18.352Z,58.10
2018-06-28T04:41:50.090Z,57.60
2018-06-28T04:42:21.826Z,57.90
2018-06-28T04:42:53.556Z,57.90
2018-06-28T04:43:25.339Z,58.00
2018-06-28T04:43:57.044Z,58.00
2018-06-28T04:44:28.766Z,58.00
2018-06-28T04:45:00.587Z,58.10
2018-06-28T04:45:32.292Z,57.90
2018-06-28T04:46:04.014Z,58.30
2018-06-28T04:46:35.749Z,58.40
2018-06-28T04:47:07.466Z,58.20
2018-06-28T04:47:39.197Z,58.20
2018-06-28T04:48:10.936Z,58.40
2018-06-28T04:48:42.704Z,58.30
2018-06-28T04:49:14.402Z,58.20
2018-06-28T04:49:46.160Z,58.20
2018-06-28T04:50:17.874Z,58.30
2018-06-28T04:50:49.621Z,58.10
2018-06-28T04:51:21.351Z,58.20
2018-06-28T04:51:53.062Z,58.30
2018-06-28T04:52:24.803Z,58.30
2018-06-28T04:52:56.530Z,58.40
2018-06-28T04:53:28.270Z,58.60
2018-06-28T04:53:59.989Z,58.60
2018-06-28T04:54:31.757Z,58.20
2018-06-28T04:55:03.515Z,58.70
2018-06-28T04:55:35.246Z,58.80
2018-06-28T04:56:07.028Z,58.50
2018-06-28T04:56:38.717Z,58.60
2018-06-28T04:57:10.448Z,58.50
2018-06-28T04:57:42.168Z,58.60
2018-06-28T04:58:13.893Z,58.50
2018-06-28T04:58:45.622Z,58.40
2018-06-28T04:59:17.367Z,58.30
2018-06-28T04:59:49.074Z,58.40
2018-06-28T05:00:20.797Z,58.40
2018-06-28T05:00:52.611Z,58.30
2018-06-28T05:01:24.406Z,58.00
2018-06-28T05:01:56.235Z,58.00
2018-06-28T05:02:28.150Z,58.20
2018-06-28T05:02:59.866Z,58.10
2018-06-28T05:03:31.591Z,58.00
2018-06-28T05:04:03.339Z,58.10
2018-06-28T05:04:35.070Z,58.00
2018-06-28T05:05:06.795Z,58.00
2018-06-28T05:05:38.527Z,57.90
2018-06-28T05:06:10.248Z,57.80
2018-06-28T05:06:41.977Z,57.90
2018-06-28T05:07:45.957Z,57.90
2018-06-28T05:08:17.685Z,57.80
2018-06-28T05:08:49.431Z,57.70
2018-06-28T05:09:21.165Z,57.60
2018-06-28T05:09:53.088Z,57.80
2018-06-28T05:10:24.819Z,57.00
2018-06-28T05:10:56.556Z,56.90
2018-06-28T05:11:28.282Z,56.70
2018-06-28T05:12:00.041Z,56.50
2018-06-28T05:12:31.777Z,56.50
2018-06-28T05:13:03.502Z,56.40
2018-06-28T05:13:35.267Z,56.30
2018-06-28T05:14:07.002Z,56.40
2018-06-28T05:14:38.735Z,56.40
2018-06-28T05:15:10.460Z,56.30
2018-06-28T05:15:42.194Z,56.30
2018-06-28T05:16:13.915Z,56.30
2018-06-28T05:16:45.687Z,56.40
2018-06-28T05:17:17.442Z,56.30
2018-06-28T05:17:49.169Z,56.40
2018-06-28T05:18:20.904Z,56.20
2018-06-28T05:18:52.669Z,56.30
2018-06-28T05:19:24.389Z,56.30
2018-06-28T05:19:56.116Z,56.50
2018-06-28T05:20:27.863Z,56.60
2018-06-28T05:20:59.603Z,56.60
2018-06-28T05:21:31.347Z,56.50
2018-06-28T05:22:03.069Z,56.50
2018-06-28T05:22:34.794Z,56.50
2018-06-28T05:23:06.536Z,56.50
2018-06-28T05:23:38.283Z,56.60
2018-06-28T05:24:10.002Z,56.50
2018-06-28T05:24:41.742Z,56.50
2018-06-28T05:25:13.477Z,56.50
2018-06-28T05:25:45.205Z,56.50
2018-06-28T05:26:16.953Z,56.40
2018-06-28T05:26:48.727Z,56.30
2018-06-28T05:27:20.424Z,56.30
2018-06-28T05:27:52.163Z,56.10
2018-06-28T05:28:23.897Z,56.60
2018-06-28T05:28:55.676Z,56.70
2018-06-28T05:29:27.393Z,56.80
2018-06-28T05:29:59.140Z,56.70
2018-06-28T05:31:02.934Z,56.90
2018-06-28T05:31:34.666Z,56.80
2018-06-28T05:32:06.393Z,57.00
2018-06-28T05:32:38.114Z,57.00
2018-06-28T05:33:09.867Z,57.00
2018-06-28T05:33:41.613Z,56.90
2018-06-28T05:34:13.326Z,56.80
2018-06-28T05:34:45.125Z,56.50
2018-06-28T05:35:17.011Z,56.90
2018-06-28T05:35:48.722Z,57.00
2018-06-28T05:36:20.455Z,56.80
2018-06-28T05:36:52.257Z,57.10
2018-06-28T05:37:23.998Z,57.10
2018-06-28T05:37:55.757Z,57.20
2018-06-28T05:38:27.488Z,57.20
2018-06-28T05:38:59.229Z,57.10
2018-06-28T05:39:30.962Z,57.20
2018-06-28T05:40:02.676Z,57.20
2018-06-28T05:40:34.449Z,57.30
2018-06-28T05:41:06.192Z,57.30
2018-06-28T05:41:37.922Z,57.20
2018-06-28T05:42:09.658Z,57.10
2018-06-28T05:42:41.420Z,57.10
2018-06-28T05:43:13.145Z,57.20
2018-06-28T05:43:44.881Z,57.00
2018-06-28T05:44:16.659Z,57.30
2018-06-28T05:44:48.361Z,57.00
2018-06-28T05:45:20.116Z,57.60
2018-06-28T05:45:51.835Z,57.00
2018-06-28T05:46:23.569Z,56.70
2018-06-28T05:46:55.306Z,56.70
2018-06-28T05:47:27.073Z,56.40
2018-06-28T05:47:58.776Z,56.30
2018-06-28T05:48:30.510Z,56.20
2018-06-28T05:49:02.277Z,56.20
2018-06-28T05:49:34.010Z,56.20
2018-06-28T05:50:05.866Z,56.10
2018-06-28T05:50:37.593Z,56.00
2018-06-28T05:51:09.354Z,56.20
2018-06-28T05:51:41.067Z,56.10
2018-06-28T05:52:12.813Z,56.10
2018-06-28T05:52:44.556Z,56.40
2018-06-28T05:53:16.283Z,56.40
2018-06-28T05:53:48.024Z,56.60
2018-06-28T05:54:19.754Z,56.60
2018-06-28T05:54:51.481Z,56.80
2018-06-28T05:55:23.206Z,56.70
2018-06-28T05:55:55.057Z,56.90
2018-06-28T05:56:26.785Z,56.90
2018-06-28T05:56:58.509Z,56.90
2018-06-28T05:57:30.229Z,57.00
2018-06-28T05:58:02.130Z,57.00
2018-06-28T05:58:33.886Z,57.00
2018-06-28T05:59:05.615Z,57.20
2018-06-28T05:59:37.334Z,57.20
2018-06-28T06:00:09.067Z,57.30
2018-06-28T06:00:40.782Z,57.20
2018-06-28T06:01:12.527Z,57.30
2018-06-28T06:01:44.261Z,57.20
2018-06-28T06:02:15.994Z,57.40
2018-06-28T06:02:47.723Z,57.10
2018-06-28T06:03:19.474Z,57.00
2018-06-28T06:03:51.187Z,57.00
2018-06-28T06:04:22.979Z,56.90
2018-06-28T06:04:54.734Z,56.70
2018-06-28T06:05:26.468Z,56.70
2018-06-28T06:05:58.251Z,56.60
2018-06-28T06:06:30.011Z,56.40
2018-06-28T06:07:01.740Z,56.40
2018-06-28T06:07:33.469Z,56.40
2018-06-28T06:08:05.194Z,56.20
2018-06-28T06:08:36.921Z,56.40
2018-06-28T06:09:08.718Z,56.40
2018-06-28T06:09:40.450Z,56.40
2018-06-28T06:10:12.197Z,56.30
2018-06-28T06:10:43.923Z,56.40
2018-06-28T06:11:15.653Z,56.30
2018-06-28T06:11:47.403Z,56.50
2018-06-28T06:12:19.128Z,56.50
2018-06-28T06:12:51.117Z,56.40
2018-06-28T06:13:23.197Z,56.60
2018-06-28T06:13:54.937Z,56.40
2018-06-28T06:14:26.661Z,56.40
2018-06-28T06:14:58.568Z,56.40
2018-06-28T06:15:30.284Z,56.50
2018-06-28T06:16:02.009Z,56.60
2018-06-28T06:16:33.963Z,56.80
2018-06-28T06:17:05.882Z,56.80
2018-06-28T06:17:37.974Z,56.70
2018-06-28T06:18:09.716Z,56.70
2018-06-28T06:18:41.461Z,56.90
2018-06-28T06:19:13.210Z,56.80
2018-06-28T06:19:44.953Z,56.80
2018-06-28T06:20:16.720Z,56.80
2018-06-28T06:20:48.654Z,56.80
2018-06-28T06:21:20.589Z,56.90
2018-06-28T06:21:52.310Z,57.00
2018-06-28T06:22:24.043Z,57.30
2018-06-28T06:22:55.781Z,57.00
2018-06-28T06:23:27.514Z,57.20
2018-06-28T06:23:59.256Z,57.10
2018-06-28T06:24:31.094Z,57.30
2018-06-28T06:25:02.793Z,57.50
2018-06-28T06:25:34.582Z,57.30
2018-06-28T06:26:06.280Z,57.40
2018-06-28T06:26:38.013Z,57.50
2018-06-28T06:27:09.738Z,57.50
2018-06-28T06:27:41.480Z,57.60
2018-06-28T06:28:14.463Z,57.60
2018-06-28T06:28:46.434Z,57.70
2018-06-28T06:29:19.047Z,57.70
2018-06-28T06:29:50.964Z,57.70
2018-06-28T06:30:22.690Z,57.70
2018-06-28T06:30:54.463Z,57.70
2018-06-28T06:31:26.324Z,57.40
2018-06-28T06:31:58.041Z,57.70
2018-06-28T06:32:29.781Z,57.70
2018-06-28T06:33:01.494Z,57.80
2018-06-28T06:33:33.264Z,57.70
2018-06-28T06:34:04.982Z,57.70
2018-06-28T06:34:36.721Z,58.10
2018-06-28T06:35:08.558Z,57.70
2018-06-28T06:35:40.388Z,58.10
2018-06-28T06:36:12.135Z,57.60
2018-06-28T06:36:43.865Z,57.70
2018-06-28T06:37:15.590Z,57.90
2018-06-28T06:38:19.295Z,57.60
2018-06-28T06:38:51.044Z,58.00
2018-06-28T06:39:22.767Z,58.00
2018-06-28T06:39:54.506Z,57.80
2018-06-28T06:40:26.250Z,57.90
2018-06-28T06:40:57.983Z,58.30
2018-06-28T06:41:29.700Z,58.10
2018-06-28T06:42:01.443Z,58.10
2018-06-28T06:42:33.177Z,58.00
2018-06-28T06:43:04.970Z,58.00
2018-06-28T06:43:36.723Z,58.20
2018-06-28T06:44:08.466Z,58.20
2018-06-28T06:44:40.202Z,58.20
2018-06-28T06:45:11.931Z,58.20
2018-06-28T06:45:43.696Z,58.80
2018-06-28T06:46:15.399Z,58.10
2018-06-28T06:46:47.126Z,58.20
2018-06-28T06:47:18.897Z,58.20
2018-06-28T06:47:50.691Z,58.20
2018-06-28T06:48:22.555Z,58.20
2018-06-28T06:48:54.266Z,58.20
2018-06-28T06:49:26.103Z,58.10
2018-06-28T06:49:57.817Z,58.20
2018-06-28T06:50:29.555Z,58.20
2018-06-28T06:51:01.286Z,58.80
2018-06-28T06:51:33.015Z,58.00
2018-06-28T06:52:04.734Z,58.30
2018-06-28T06:52:36.460Z,58.30
2018-06-28T06:53:08.178Z,58.20
2018-06-28T06:53:39.923Z,58.30
2018-06-28T06:54:11.650Z,58.50
2018-06-28T06:54:43.416Z,58.40
2018-06-28T06:55:15.141Z,58.30
2018-06-28T06:55:47.142Z,58.20
2018-06-28T06:56:18.881Z,58.50
2018-06-28T06:56:50.614Z,58.70
2018-06-28T06:57:22.344Z,58.40
2018-06-28T06:57:54.083Z,58.60